Relevés horaires Matro (Suisse)


Relevés horaires à Matro - Mardi 01 Sept. 2026
Heure UTC1 Température [°C] Vent [km/h] Hum. [%] Pres.4 [hPa] Visi. [Km] Nébu. [octa] Préc.5 [mm] Cond.
2m. Res. Ros. Dir.2 Vit. Moy. Raf.3
23:00 9.6 8.7 9.4 SSE 7.4 -- 14.8 99 850(0.1/3h) -- -- -- --
22:00 9.8 8.2 9.3 ESE 11.1 -- 20.4 97 850(0.4/3h) -- -- -- --
21:00 10.0 7.7 9.9 SSE 16.7 -- 20.4 99 850(0.8/3h) -- -- -- --
20:00 10.3 8.5 8.8 SSE 13.0 -- 20.4 90 850(0.9/3h) -- -- -- --
19:00 11.0 9.7 7.7 SSE 11.1 -- 16.7 80 850(0.5/3h) -- -- -- --
18:00 11.5 10.5 7.3 SSE 9.3 -- 35.2 75 850(0.3/3h) -- -- -- --
17:00 12.0 10.2 7.1 S 16.7 -- 25.9 72 850(0.1/3h) -- -- -- --
16:00 13.2 11.7 5.8 S 16.7 -- 31.5 61 850(-0.1/3h) -- -- -- --
15:00 13.3 11.4 5.6 S 22.2 -- 35.2 60 850(-0.4/3h) -- -- -- --
14:00 14.4 13 5.8 S 18.5 -- -- 56 850(-0.2/3h) -- -- -- --
13:00 13.0 11 4.1 S 22.2 -- 35.2 55 850(-0.2/3h) -- -- -- --
12:00 13.0 11 7.0 S 22.2 -- 35.2 67 850(0.1/3h) -- -- -- --
11:00 12.3 10.2 3.2 SSE 20.4 -- 31.5 54 850(0.5/3h) -- -- -- --
10:00 12.1 10.3 3.1 SSE 16.7 -- 27.8 54 850(0.7/3h) -- -- -- --
09:00 11.8 10.2 2.5 SSE 14.8 -- 25.9 53 850(0.8/3h) -- -- -- --
08:00 11.8 10.9 0.8 SE 9.3 -- 25.9 47 850(0.7/3h) -- -- -- --
07:00 11.2 11.2 1.1 E 3.7 -- 11.1 50 850(0.8/3h) -- -- -- --
06:00 10.3 10.3 -1.6 SSO 1.9 -- 42.6 43 850(0.4/3h) -- -- -- --
05:00 9.9 9 -2.9 NO 7.4 -- 14.8 40 850(-0.1/3h) -- -- -- --
04:00 9.3 7.1 -1.9 NNO 14.8 -- 22.2 45 850(-0.5/3h) -- -- -- --
03:00 9.0 6.7 -0.8 NO 14.8 -- 42.6 50 850(-0.3/3h) -- -- -- --
02:00 8.9 6.1 -0.5 NNO 18.5 -- 33.3 52 850(0.0/3h) -- -- -- --
01:00 9.1 5.4 -0.6 NNO 29.6 -- 42.6 51 850(0.2/3h) -- -- -- --
00:00 9.2 5.2 0.1 NNO 35.2 -- 55.6 53 850(0.3/3h) -- -- -- --

1 Coordinated Universal Time. Actuellement il est 02:00 locale et 00:00 UTC.

2 Le vent souffle depuis la direction indiquée vers la direction oposée.

3 Les rafales max. sont disponible 40 min après l'heure du relevé.

4 Pour les stations d'altitude (plus de 600m) le géopotentiel du niveau le plus proche de la pression obligatoire est indiqué.

5 Les stations disposant d'un diffuseur peuvent indiquer "trace". Cela signifie que des précipitations ont touchés le sol mais que la quantité est inférieure à 0.1 mm.

Copyright

Les données affichées sur cette page sont la propriété exclusive de Météo Suisse.

Récapitulatif de la journée
Température [°C] Vent [km/h] Ensoleillement4 [h] Precipitations totale5 [mm] Pression [Hpa]
Min1 Max.2 Moy.3 Max. Min Max.
8.9 14.4 0 55.6 11 h 30 min 0 850.0 850.0

1 Température minimale relevée entre 18:00 UTC la veille et 18:00 UTC le jour donné.

2 Température maximale relevée entre 06:00 UTC le jour donné et 06:00 UTC le lendemain.

3 Vent moyen de la journée basé sur les relevés horaires.

4 Ensoleillement en heures relevé entre 06:00 UTC la veille et 06:00 UTC le jour donné.

5 Précipitations totales tombées entre 06:00 UTC la jour donné et 06:00 UTC le lendemain.

Graphiques horaires